Flight Track Log - Related Links

Times and Time Zones

All times are in EDT time to prevent confusion due to time zone crossing. See the N830QS flight status page for this flight to view local times or setup timezone preferences in your user account.

Time Position Orientation Groundspeed Altitude Reporting Facility
EDT Latitude Longitude Course Direction KTS MPH feet Rate Location/Type
Sun 08:30:08 PM 31.8025 -106.3928 244° Southwest 154 177 4,700  Level Albuquerque Center
Sun 08:31:14 PM 31.7803 -106.4458 244° Southwest 193 222 7,000 1,892 Climbing Albuquerque Center
Sun 08:32:18 PM 31.7678 -106.5161 258° West 253 291 8,800 2,333 Climbing Albuquerque Center
Sun 08:33:20 PM 31.8150 -106.5992 304° West 280 322 11,900 2,613 Climbing Albuquerque Center
Sun 08:34:22 PM 31.8786 -106.6553 323° Northwest 299 344 14,200 2,293 Climbing Albuquerque Center
Sun 08:35:23 PM 31.9625 -106.6911 340° North 320 368 16,600 2,195 Climbing Albuquerque Center
Sun 08:36:25 PM 32.0494 -106.7286 340° North 332 382 18,700 2,274 Climbing Albuquerque Center
Sun 08:37:27 PM 32.1597 -106.7772 340° North 352 405 21,300 2,244 Climbing Albuquerque Center
Sun 08:38:28 PM 32.2528 -106.8183 340° North 358 412 23,300 1,854 Climbing Albuquerque Center
Sun 08:39:30 PM 32.3453 -106.8592 340° North 358 412 25,100 1,707 Climbing Albuquerque Center
Sun 08:40:31 PM 32.4461 -106.9031 340° North 364 419 26,800 1,659 Climbing Albuquerque Center
Sun 08:41:33 PM 32.5283 -106.9431 338° Northwest 369 425 28,500 2,081 Climbing Albuquerque Center
Sun 08:42:35 PM 32.6389 -106.9917 340° North 355 409 31,100 2,146 Climbing Albuquerque Center
Sun 08:43:36 PM 32.7322 -107.0342 339° North 349 402 32,900 1,805 Climbing Albuquerque Center
Sun 08:44:38 PM 32.8222 -107.0731 340° North 347 399 34,800 1,610 Climbing Albuquerque Center
Sun 08:45:39 PM 32.9086 -107.1133 339° North 337 388 36,200 1,561 Climbing Albuquerque Center
Sun 08:46:41 PM 32.9956 -107.1533 339° North 336 387 38,000 1,561 Climbing Albuquerque Center
Sun 08:47:42 PM 33.0817 -107.1917 340° North 333 383 39,400 976 Climbing Albuquerque Center
Sun 08:48:44 PM 33.1678 -107.2281 341° North 329 379 40,000 290 Climbing Albuquerque Center
Sun 08:49:46 PM 33.2628 -107.2667 341° North 351 404 40,000  Level Albuquerque Center
Sun 08:50:47 PM 33.3939 -107.2511 North 393 452 40,000  Level Albuquerque Center
Sun 08:51:49 PM 33.5025 -107.2225 12° North 398 458 40,000  Level Albuquerque Center
Sun 08:52:50 PM 33.6114 -107.1981 11° North 399 459 40,000  Level Albuquerque Center
Sun 08:53:52 PM 33.7222 -107.1678 13° North 404 465 40,000  Level Albuquerque Center
Sun 08:54:53 PM 33.8311 -107.1386 13° North 402 463 40,000  Level Albuquerque Center
Sun 08:55:55 PM 33.9419 -107.1108 12° North 406 467 40,000  Level Albuquerque Center
Sun 08:56:57 PM 34.0553 -107.0808 12° North 413 475 40,000  Level Albuquerque Center
Sun 08:57:58 PM 34.1869 -107.0447 13° North 407 468 40,000  Level Albuquerque Center
Sun 08:59:00 PM 34.2986 -107.0158 12° North 409 471 40,000  Level Albuquerque Center
Sun 09:00:01 PM 34.4036 -106.9886 12° North 410 472 40,000  Level Albuquerque Center
Sun 09:01:03 PM 34.5175 -106.9575 13° North 417 480 40,000  Level Albuquerque Center
Sun 09:02:05 PM 34.6317 -106.9275 12° North 419 482 40,000  Level Albuquerque Center
Sun 09:03:06 PM 34.7444 -106.8969 13° North 418 481 40,000  Level Albuquerque Center
Sun 09:04:08 PM 34.8789 -106.8617 12° North 416 479 40,000  Level Albuquerque Center
Sun 09:05:09 PM 34.9886 -106.8325 12° North 421 484 40,000  Level Albuquerque Center
Sun 09:06:11 PM 35.1136 -106.7878 16° North 420 483 40,000  Level Albuquerque Center
Sun 09:07:12 PM 35.2214 -106.7428 19° North 426 490 40,000  Level Albuquerque Center
Sun 09:08:14 PM 35.3447 -106.6900 19° North 423 487 40,000  Level Albuquerque Center
Sun 09:09:16 PM 35.4589 -106.6411 19° North 432 497 40,000  Level Albuquerque Center
Sun 09:10:17 PM 35.5694 -106.5939 19° North 426 490 40,000  Level Albuquerque Center
Sun 09:11:19 PM 35.6847 -106.5458 19° North 420 483 40,000  Level Albuquerque Center
Sun 09:12:20 PM 35.7892 -106.5008 19° North 417 480 40,000 -341 Level Albuquerque Center
Sun 09:13:22 PM 35.9122 -106.4472 19° North 418 481 39,300 -488 Descending Albuquerque Center
Sun 09:14:23 PM 36.0131 -106.4050 19° North 429 494 39,000 -146 Descending Albuquerque Center
Sun 09:15:25 PM 36.1247 -106.3583 19° North 427 491 39,000  Level Albuquerque Center
Sun 09:16:26 PM 36.2533 -106.3022 19° North 425 489 39,000  Level Albuquerque Center
Sun 09:17:28 PM 36.3611 -106.2553 19° North 428 493 39,000  Level Albuquerque Center
Sun 09:18:29 PM 36.4867 -106.2006 19° North 429 494 39,000  Level Albuquerque Center
Sun 09:19:31 PM 36.5956 -106.1533 19° North 431 496 39,000  Level Albuquerque Center
Sun 09:20:25 PM 36.6878 -106.1117 20° North 431 496 39,000  Level Denver Center
Sun 09:21:27 PM 36.8153 -106.0558 19° North 422 486 39,000  Level Denver Center
Sun 09:22:29 PM 36.9206 -106.0086 20° North 418 481 39,000 -439 Level Denver Center
Sun 09:23:30 PM 37.0386 -105.9558 20° North 425 489 38,100 -488 Descending Denver Center
Sun 09:24:32 PM 37.1617 -105.9008 20° North 422 486 38,000 -435 Descending Denver Center
Sun 09:25:34 PM 37.2667 -105.8556 19° North 417 480 37,200 -1,839 Descending Denver Center
Sun 09:26:36 PM 37.3914 -105.8286 10° North 419 482 34,200 -2,049 Descending Denver Center
Sun 09:27:37 PM 37.4942 -105.8533 349° North 393 452 33,000 -585 Descending Denver Center
Sun 09:28:39 PM 37.6067 -105.8808 349° North 396 456 33,000 -677 Level Denver Center
Sun 09:29:41 PM 37.7119 -105.9069 349° North 401 461 31,600 -1,707 Descending Denver Center
Sun 09:30:42 PM 37.8333 -105.9392 348° North 399 459 29,500 -1,268 Descending Denver Center
Sun 09:31:44 PM 37.9361 -105.9636 349° North 392 451 29,000 -242 Descending Denver Center
Sun 09:32:46 PM 38.0597 -105.9972 348° North 403 464 29,000 -97 Level Denver Center
Sun 09:33:48 PM 38.1672 -106.0228 349° North 408 470 28,800 -976 Descending Denver Center
Sun 09:34:49 PM 38.2908 -106.0556 348° North 406 467 27,000 -878 Descending Denver Center
Sun 09:35:51 PM 38.3953 -106.0722 353° North 395 455 27,000  Level Denver Center
Sun 09:36:53 PM 38.4914 -106.0017 30° Northeast 423 487 27,000  Level Denver Center
Sun 09:37:55 PM 38.5903 -105.8875 42° Northeast 429 494 27,000 -339 Level Denver Center
Sun 09:38:57 PM 38.6761 -105.7903 41° Northeast 431 496 26,300 -1,500 Descending Denver Center
Sun 09:39:59 PM 38.7733 -105.6772 42° Northeast 425 489 23,900 -2,098 Descending Denver Center
Sun 09:41:00 PM 38.8550 -105.5828 42° Northeast 417 480 22,000 -1,822 Descending Denver Center
Sun 09:42:14 PM 38.9489 -105.4733 42° Northeast 409 471 19,800 -2,294 Descending Denver Center
Sun 09:43:16 PM 39.0394 -105.3664 43° Northeast 407 468 16,800 -2,323 Descending Denver Center
Sun 09:44:18 PM 39.1325 -105.2586 42° Northeast 380 437 15,000 -1,548 Descending Denver Center
Sun 09:45:20 PM 39.2019 -105.1742 43° Northeast 351 404 13,600 -1,548 Descending Denver Center
Sun 09:46:22 PM 39.2636 -105.0906 46° Northeast 321 369 11,800 -1,306 Descending Denver Center
Sun 09:47:24 PM 39.3281 -105.0092 44° Northeast 307 353 10,900 -919 Descending Denver Center
Sun 09:48:26 PM 39.3897 -104.9272 46° Northeast 317 365 9,900 -1,463 Descending Denver Center
Sun 09:49:27 PM 39.4558 -104.8622 37° Northeast 277 319 7,900 -1,463 Descending Denver Center
Sun 09:50:29 PM 39.5172 -104.8483 10° North 206 237 6,900 -1,016 Descending Denver Center
Sun 09:51:31 PM 39.5569 -104.8503 358° North 140 161 5,800 -1,065 Descending Denver Center
Sun 09:53:00 PM 39.5667 -104.8333 North  Level FlightAware Approximate
Sun 10:00:00 PM 39.5701 -104.8493 North  Level Estimated
Sun 10:01:00 PM 39.5701 -104.8493 North  Level Estimated

Login

Don't have an account? Register now (free) for customized features, flight alerts, and more!